createdAt,value
2018-11-11T00:01:26.207Z,661.03
2018-11-11T00:03:55.182Z,587.37
2018-11-11T00:06:26.775Z,606.63
2018-11-11T00:08:55.983Z,626.33
2018-11-11T00:11:25.227Z,626.63
2018-11-11T00:13:54.363Z,647.07
2018-11-11T00:16:23.372Z,682.40
2018-11-11T00:18:52.429Z,679.40
2018-11-11T00:21:21.447Z,682.93
2018-11-11T00:23:50.748Z,684.93
2018-11-11T00:26:19.854Z,691.33
2018-11-11T00:28:49.326Z,713.10
2018-11-11T00:31:18.340Z,712.40
2018-11-11T00:33:48.216Z,684.23
2018-11-11T00:36:18.694Z,697.63
2018-11-11T00:38:49.540Z,677.40
2018-11-11T00:41:18.600Z,695.13
2018-11-11T00:43:47.571Z,699.63
2018-11-11T00:46:16.589Z,681.40
2018-11-11T00:48:45.600Z,651.60
2018-11-11T00:51:14.627Z,662.50
2018-11-11T00:53:43.617Z,648.13
2018-11-11T00:56:12.557Z,643.40
2018-11-11T00:58:41.563Z,647.83
2018-11-11T01:01:10.578Z,639.27
2018-11-11T01:03:39.657Z,606.83
2018-11-11T01:06:08.639Z,602.93
2018-11-11T01:08:37.587Z,577.50
2018-11-11T01:11:06.592Z,548.23
2018-11-11T01:13:35.568Z,540.27
2018-11-11T01:16:04.803Z,545.93
2018-11-11T01:18:33.780Z,544.37
2018-11-11T01:21:02.722Z,526.40
2018-11-11T01:23:31.722Z,513.47
2018-11-11T01:26:00.657Z,513.73
2018-11-11T01:28:29.655Z,511.63
2018-11-11T01:30:58.672Z,524.10
2018-11-11T01:33:27.696Z,521.87
2018-11-11T01:35:56.659Z,549.50
2018-11-11T01:38:25.632Z,533.20
2018-11-11T01:40:54.647Z,547.67
2018-11-11T01:43:23.625Z,517.33
2018-11-11T01:45:52.628Z,526.53
2018-11-11T01:48:21.599Z,527.53
2018-11-11T01:50:50.631Z,529.93
2018-11-11T01:53:19.581Z,532.37
2018-11-11T01:55:48.608Z,516.80
2018-11-11T01:58:17.639Z,536.90
2018-11-11T02:00:46.660Z,510.53
2018-11-11T02:03:15.632Z,517.47
2018-11-11T02:05:44.644Z,521.40
2018-11-11T02:08:13.605Z,542.60
2018-11-11T02:10:42.620Z,533.50
2018-11-11T02:13:11.621Z,535.43
2018-11-11T02:15:40.621Z,552.90
2018-11-11T02:18:09.597Z,523.20
2018-11-11T02:20:38.607Z,554.37
2018-11-11T02:23:07.595Z,561.60
2018-11-11T02:25:36.624Z,601.93
2018-11-11T02:28:05.831Z,617.77
2018-11-11T02:30:34.831Z,648.40
2018-11-11T02:33:03.832Z,672.60
2018-11-11T02:35:32.768Z,664.43
2018-11-11T02:38:01.761Z,666.47
2018-11-11T02:40:30.737Z,673.13
2018-11-11T02:42:59.732Z,661.30
2018-11-11T02:45:28.678Z,656.33
2018-11-11T02:47:57.660Z,663.37
2018-11-11T02:50:26.646Z,678.23
2018-11-11T02:52:55.709Z,683.93
2018-11-11T02:55:24.695Z,683.00
2018-11-11T02:57:53.631Z,672.20
2018-11-11T03:00:22.635Z,680.70
2018-11-11T03:02:51.616Z,708.73
2018-11-11T03:05:20.763Z,699.07
2018-11-11T03:07:49.748Z,692.33
2018-11-11T03:10:19.100Z,691.70
2018-11-11T03:12:49.090Z,705.53
2018-11-11T03:15:18.511Z,716.20
2018-11-11T03:17:47.651Z,685.33
2018-11-11T03:20:17.130Z,715.60
2018-11-11T03:22:46.100Z,700.47
2018-11-11T03:25:16.045Z,722.30
2018-11-11T03:27:45.090Z,716.70
2018-11-11T03:30:26.209Z,741.03
2018-11-11T03:32:55.210Z,736.33
2018-11-11T03:35:24.215Z,726.60
2018-11-11T03:37:53.221Z,736.97
2018-11-11T03:40:22.168Z,706.90
2018-11-11T03:42:51.672Z,715.10
2018-11-11T03:45:21.402Z,722.17
2018-11-11T03:47:51.427Z,702.00
2018-11-11T03:50:20.475Z,734.80
2018-11-11T03:52:49.491Z,713.57
2018-11-11T03:55:18.585Z,727.33
2018-11-11T03:57:47.566Z,734.37
2018-11-11T04:00:17.324Z,733.20
2018-11-11T04:02:46.340Z,714.77
2018-11-11T04:05:16.527Z,721.33
2018-11-11T04:07:45.560Z,721.23
2018-11-11T04:10:16.020Z,707.47
2018-11-11T04:12:45.431Z,679.87
2018-11-11T04:15:15.826Z,685.87
2018-11-11T04:17:44.855Z,641.60
2018-11-11T04:20:15.260Z,625.37
2018-11-11T04:22:44.248Z,590.23
2018-11-11T04:25:13.956Z,590.17
2018-11-11T04:27:42.963Z,542.33
2018-11-11T04:30:13.071Z,564.10
2018-11-11T04:32:42.363Z,550.60
2018-11-11T04:35:11.584Z,547.70
2018-11-11T04:37:40.595Z,560.60
2018-11-11T04:40:11.113Z,549.60
2018-11-11T04:42:40.088Z,565.17
2018-11-11T04:45:11.350Z,558.63
2018-11-11T04:47:40.332Z,562.47
2018-11-11T04:50:11.352Z,585.20
2018-11-11T04:52:40.387Z,569.70
2018-11-11T04:55:10.004Z,559.27
2018-11-11T04:57:39.124Z,566.90
2018-11-11T05:00:09.312Z,563.53
2018-11-11T05:02:38.544Z,570.47
2018-11-11T05:05:08.152Z,586.23
2018-11-11T05:07:37.140Z,576.53
2018-11-11T05:10:06.407Z,598.47
2018-11-11T05:12:35.803Z,589.80
2018-11-11T05:15:05.327Z,601.63
2018-11-11T05:17:34.329Z,617.50
2018-11-11T05:20:03.335Z,613.33
2018-11-11T05:22:32.339Z,639.70
2018-11-11T05:25:01.332Z,641.73
2018-11-11T05:27:30.292Z,643.67
2018-11-11T05:29:59.281Z,666.03
2018-11-11T05:32:28.257Z,655.17
2018-11-11T05:34:57.261Z,631.90
2018-11-11T05:37:26.368Z,606.47
2018-11-11T05:39:55.378Z,603.60
2018-11-11T05:42:24.352Z,649.73
2018-11-11T05:44:53.355Z,640.90
2018-11-11T05:47:22.329Z,647.73
2018-11-11T05:49:51.332Z,651.37
2018-11-11T05:52:20.289Z,655.57
2018-11-11T05:54:49.281Z,701.53
2018-11-11T05:57:18.264Z,658.73
2018-11-11T05:59:47.362Z,689.87
2018-11-11T06:02:17.114Z,704.57
2018-11-11T06:04:46.110Z,714.20
2018-11-11T06:07:15.080Z,719.03
2018-11-11T06:09:44.094Z,719.73
2018-11-11T06:12:13.084Z,744.57
2018-11-11T06:14:42.084Z,731.77
2018-11-11T06:17:11.074Z,750.70
2018-11-11T06:19:40.068Z,760.27
2018-11-11T06:22:09.052Z,766.93
2018-11-11T06:24:38.093Z,748.50
2018-11-11T06:27:07.107Z,766.90
2018-11-11T06:29:36.128Z,752.67
2018-11-11T06:32:05.950Z,765.50
2018-11-11T06:34:35.013Z,767.77
2018-11-11T06:37:03.997Z,764.60
2018-11-11T06:39:33.016Z,769.43
2018-11-11T06:42:01.952Z,747.83
2018-11-11T06:44:30.875Z,721.63
2018-11-11T06:46:59.856Z,674.77
2018-11-11T06:49:28.798Z,653.00
2018-11-11T06:51:57.773Z,614.80
2018-11-11T06:54:26.711Z,569.10
2018-11-11T06:56:55.700Z,562.10
2018-11-11T06:59:24.635Z,562.90
2018-11-11T07:01:53.940Z,576.83
2018-11-11T07:04:22.889Z,555.17
2018-11-11T07:06:51.875Z,559.97
2018-11-11T07:09:20.876Z,539.10
2018-11-11T07:11:49.819Z,561.20
2018-11-11T07:14:18.809Z,593.37
2018-11-11T07:16:47.745Z,594.23
2018-11-11T07:19:16.715Z,589.37
2018-11-11T07:21:45.638Z,577.00
2018-11-11T07:24:14.692Z,593.27
2018-11-11T07:26:43.783Z,599.00
2018-11-11T07:29:12.777Z,593.47
2018-11-11T07:31:41.755Z,591.10
2018-11-11T07:34:10.756Z,592.30
2018-11-11T07:36:39.711Z,599.60
2018-11-11T07:39:10.788Z,600.27
2018-11-11T07:41:39.770Z,599.47
2018-11-11T07:44:08.787Z,588.47
2018-11-11T07:46:37.940Z,534.00
2018-11-11T07:49:06.995Z,530.43
2018-11-11T07:51:36.267Z,512.83
2018-11-11T07:54:05.536Z,511.40
2018-11-11T07:56:34.514Z,452.40
2018-11-11T07:59:03.552Z,449.93
2018-11-11T08:01:32.666Z,436.00
2018-11-11T08:04:05.094Z,413.93
2018-11-11T08:06:34.107Z,404.70
2018-11-11T08:09:06.417Z,427.17
2018-11-11T08:11:46.676Z,414.77
2018-11-11T08:14:15.689Z,411.60
2018-11-11T08:16:44.753Z,402.73
2018-11-11T08:19:13.847Z,284.00
2018-11-11T08:21:45.954Z,266.83
2018-11-11T08:24:14.984Z,269.67
2018-11-11T08:26:44.061Z,318.77
2018-11-11T08:29:13.121Z,259.40
2018-11-11T08:31:42.797Z,250.77
2018-11-11T08:34:12.015Z,260.83
2018-11-11T08:36:41.112Z,282.60
2018-11-11T08:39:11.576Z,257.83
2018-11-11T08:41:41.905Z,248.33
2018-11-11T08:44:11.688Z,252.40
2018-11-11T08:46:42.133Z,268.43
2018-11-11T08:49:12.489Z,272.37
2018-11-11T08:51:41.851Z,254.37
2018-11-11T08:54:11.006Z,271.37
2018-11-11T08:56:40.140Z,266.10
2018-11-11T08:59:09.280Z,264.37
2018-11-11T09:01:38.447Z,271.63
2018-11-11T09:04:07.743Z,262.33
2018-11-11T09:06:36.840Z,286.07
2018-11-11T09:09:09.684Z,273.70
2018-11-11T09:11:38.942Z,293.17
2018-11-11T09:14:07.820Z,288.27
2018-11-11T09:16:36.796Z,286.67
2018-11-11T09:19:06.181Z,305.40
2018-11-11T09:21:35.255Z,293.30
2018-11-11T09:24:05.964Z,300.83
2018-11-11T09:26:34.950Z,299.13
2018-11-11T09:29:06.460Z,311.57
2018-11-11T09:31:35.625Z,304.27
2018-11-11T09:34:04.624Z,304.60
2018-11-11T09:36:33.672Z,322.03
2018-11-11T09:39:02.694Z,319.70
2018-11-11T09:41:33.310Z,346.50
2018-11-11T09:44:02.745Z,366.07
2018-11-11T09:46:31.720Z,364.00
2018-11-11T09:49:00.816Z,358.77
2018-11-11T09:51:29.872Z,347.73
2018-11-11T09:53:58.862Z,302.63
2018-11-11T09:56:34.452Z,252.77
2018-11-11T09:59:03.404Z,282.00
2018-11-11T10:01:32.438Z,276.50
2018-11-11T10:04:08.987Z,271.00
2018-11-11T10:07:15.050Z,292.90
2018-11-11T10:09:49.549Z,311.83
2018-11-11T10:12:55.291Z,281.37
2018-11-11T10:17:34.979Z,268.07
2018-11-11T10:20:12.338Z,289.60
2018-11-11T10:22:51.517Z,275.77
2018-11-11T10:25:25.585Z,278.47
2018-11-11T10:29:05.984Z,295.03
2018-11-11T10:31:40.540Z,283.07
2018-11-11T10:34:13.259Z,272.90
2018-11-11T10:36:44.961Z,279.97
2018-11-11T10:39:21.418Z,288.37
2018-11-11T10:41:58.138Z,318.97
2018-11-11T10:44:35.952Z,361.33
2018-11-11T10:47:07.075Z,360.80
2018-11-11T10:49:39.608Z,376.97
2018-11-11T10:52:08.636Z,402.63
2018-11-11T10:54:37.669Z,422.17
2018-11-11T10:57:06.681Z,424.10
2018-11-11T10:59:35.686Z,434.87
2018-11-11T11:02:10.080Z,428.50
2018-11-11T11:04:44.505Z,421.23
2018-11-11T11:07:13.549Z,469.90
2018-11-11T11:09:42.550Z,397.23
2018-11-11T11:12:11.530Z,368.33
2018-11-11T11:14:40.544Z,351.17
2018-11-11T11:17:09.560Z,348.97
2018-11-11T11:19:38.540Z,410.87
2018-11-11T11:22:08.372Z,474.20
2018-11-11T11:24:37.357Z,513.80
2018-11-11T11:27:06.468Z,552.07
2018-11-11T11:29:35.692Z,499.30
2018-11-11T11:32:04.828Z,525.03
2018-11-11T11:34:33.865Z,513.77
2018-11-11T11:37:02.907Z,512.10
2018-11-11T11:39:32.111Z,524.00
2018-11-11T11:42:07.401Z,503.67
2018-11-11T11:44:36.847Z,495.33
2018-11-11T11:47:07.428Z,505.70
2018-11-11T11:49:36.428Z,539.07
2018-11-11T11:52:06.372Z,528.50
2018-11-11T11:54:35.425Z,498.87
2018-11-11T11:57:08.366Z,544.10
2018-11-11T11:59:37.456Z,504.23
2018-11-11T12:02:06.571Z,502.10
2018-11-11T12:04:35.490Z,510.40
2018-11-11T12:07:04.709Z,480.37
2018-11-11T12:09:33.823Z,451.10
2018-11-11T12:12:02.889Z,490.80
2018-11-11T12:14:31.981Z,436.40
2018-11-11T12:17:02.796Z,447.33
2018-11-11T12:19:31.856Z,468.93
2018-11-11T12:22:00.932Z,444.30
2018-11-11T12:24:29.939Z,423.33
2018-11-11T12:26:59.164Z,437.53
2018-11-11T12:29:28.102Z,413.27
2018-11-11T12:31:57.088Z,420.77
2018-11-11T12:34:26.167Z,414.33
2018-11-11T12:36:55.174Z,410.20
2018-11-11T12:39:24.197Z,359.30
2018-11-11T12:41:53.188Z,323.17
2018-11-11T12:44:22.169Z,315.10
2018-11-11T12:46:51.239Z,382.43
2018-11-11T12:49:20.236Z,410.50
2018-11-11T12:51:49.555Z,383.70
2018-11-11T12:54:18.513Z,395.27
2018-11-11T12:56:47.499Z,414.77
2018-11-11T12:59:16.472Z,434.70
2018-11-11T13:01:45.488Z,475.23
2018-11-11T13:04:14.572Z,479.67
2018-11-11T13:06:43.584Z,441.17
2018-11-11T13:09:12.603Z,504.47
2018-11-11T13:11:41.758Z,481.17
2018-11-11T13:14:10.797Z,466.27
2018-11-11T13:16:39.819Z,468.97
2018-11-11T13:19:10.414Z,465.97
2018-11-11T13:21:40.266Z,463.37
2018-11-11T13:24:10.007Z,465.70
2018-11-11T13:26:39.050Z,437.27
2018-11-11T13:29:08.120Z,485.27
2018-11-11T13:31:37.240Z,550.63
2018-11-11T13:34:06.524Z,484.67
2018-11-11T13:36:35.459Z,510.60
2018-11-11T13:39:07.381Z,510.27
2018-11-11T13:41:37.603Z,517.83
2018-11-11T13:44:07.050Z,476.53
2018-11-11T13:46:36.239Z,514.03
2018-11-11T13:49:08.125Z,502.00
2018-11-11T13:51:37.789Z,500.90
2018-11-11T13:54:12.146Z,490.30
2018-11-11T13:56:41.674Z,495.43
2018-11-11T13:59:10.705Z,489.27
2018-11-11T14:01:39.996Z,495.40
2018-11-11T14:04:09.043Z,495.03
2018-11-11T14:06:38.077Z,480.13
2018-11-11T14:09:11.472Z,485.20
2018-11-11T14:11:41.267Z,489.37
2018-11-11T14:14:10.435Z,483.87
2018-11-11T14:16:39.435Z,464.70
2018-11-11T14:19:08.709Z,460.23
2018-11-11T14:21:37.446Z,483.37
2018-11-11T14:24:06.505Z,496.07
2018-11-11T14:26:35.713Z,500.97
2018-11-11T14:29:04.575Z,502.73
2018-11-11T14:31:33.688Z,515.23
2018-11-11T14:34:02.652Z,497.83
2018-11-11T14:36:31.708Z,517.60
2018-11-11T14:39:07.435Z,505.43
2018-11-11T14:41:36.468Z,496.03
2018-11-11T14:44:05.672Z,499.20
2018-11-11T14:46:34.656Z,501.30
2018-11-11T14:49:03.762Z,521.27
2018-11-11T14:51:32.821Z,522.60
2018-11-11T14:54:01.843Z,526.83
2018-11-11T14:56:30.843Z,493.87
2018-11-11T14:59:00.099Z,494.33
2018-11-11T15:01:29.001Z,500.47
2018-11-11T15:03:58.106Z,511.53
2018-11-11T15:06:28.425Z,499.83
2018-11-11T15:08:57.555Z,524.23
2018-11-11T15:11:26.724Z,509.47
2018-11-11T15:13:55.715Z,512.00
2018-11-11T15:16:24.672Z,506.67
2018-11-11T15:18:53.706Z,506.20
2018-11-11T15:21:22.694Z,497.23
2018-11-11T15:23:51.700Z,511.10
2018-11-11T15:26:20.645Z,506.53
2018-11-11T15:28:49.696Z,514.60
2018-11-11T15:31:18.779Z,506.50
2018-11-11T15:33:47.797Z,516.63
2018-11-11T15:36:16.814Z,509.93
2018-11-11T15:38:45.903Z,510.63
2018-11-11T15:41:14.937Z,489.07
2018-11-11T15:43:43.907Z,456.37
2018-11-11T15:46:13.034Z,419.57
2018-11-11T15:48:42.185Z,332.77
2018-11-11T15:51:12.407Z,368.27
2018-11-11T15:53:41.467Z,388.27
2018-11-11T15:56:10.457Z,350.60
2018-11-11T15:58:39.462Z,380.77
2018-11-11T16:01:08.436Z,385.37
2018-11-11T16:03:37.409Z,383.70
2018-11-11T16:06:06.436Z,406.17
2018-11-11T16:08:35.456Z,417.47
2018-11-11T16:11:04.551Z,400.10
2018-11-11T16:13:33.515Z,428.57
2018-11-11T16:16:02.551Z,406.73
2018-11-11T16:18:31.587Z,456.13
2018-11-11T16:21:00.544Z,483.10
2018-11-11T16:23:29.633Z,409.50
2018-11-11T16:25:58.579Z,369.37
2018-11-11T16:28:27.552Z,358.93
2018-11-11T16:30:56.607Z,376.13
2018-11-11T16:33:25.634Z,346.67
2018-11-11T16:35:54.619Z,376.20
2018-11-11T16:38:23.637Z,401.47
2018-11-11T16:40:52.776Z,424.67
2018-11-11T16:43:21.628Z,442.67
2018-11-11T16:45:50.593Z,456.93
2018-11-11T16:48:19.644Z,479.13
2018-11-11T16:50:49.271Z,486.97
2018-11-11T16:53:18.325Z,492.80
2018-11-11T16:55:47.256Z,448.47
2018-11-11T16:58:16.248Z,461.37
2018-11-11T17:00:45.520Z,441.77
2018-11-11T17:03:14.641Z,513.67
2018-11-11T17:05:43.597Z,565.67
2018-11-11T17:08:12.634Z,592.00
2018-11-11T17:10:41.634Z,632.73
2018-11-11T17:13:12.043Z,567.00
2018-11-11T17:15:47.523Z,559.60
2018-11-11T17:18:16.560Z,550.07
2018-11-11T17:20:45.540Z,527.60
2018-11-11T17:23:14.513Z,561.70
2018-11-11T17:25:43.518Z,575.13
2018-11-11T17:28:12.625Z,591.53
2018-11-11T17:30:41.647Z,545.93
2018-11-11T17:33:10.657Z,570.50
2018-11-11T17:35:39.813Z,570.50
2018-11-11T17:38:08.824Z,582.20
2018-11-11T17:40:37.858Z,557.10
2018-11-11T17:43:06.914Z,570.43
2018-11-11T17:45:35.863Z,606.67
2018-11-11T17:48:04.902Z,571.77
2018-11-11T17:50:34.343Z,567.13
2018-11-11T17:53:04.583Z,569.33
2018-11-11T17:55:33.778Z,561.17
2018-11-11T17:58:02.793Z,508.60
2018-11-11T18:00:33.834Z,465.20
2018-11-11T18:03:04.533Z,427.03
2018-11-11T18:05:35.032Z,389.70
2018-11-11T18:08:04.642Z,345.87
2018-11-11T18:10:33.863Z,337.23
2018-11-11T18:13:04.361Z,274.03
2018-11-11T18:15:35.113Z,258.10
2018-11-11T18:18:06.132Z,248.33
2018-11-11T18:20:36.404Z,249.30
2018-11-11T18:23:07.372Z,246.17
2018-11-11T18:25:38.250Z,256.17
2018-11-11T18:28:08.559Z,292.23
2018-11-11T18:30:39.556Z,300.67
2018-11-11T18:33:09.781Z,310.13
2018-11-11T18:35:40.287Z,285.10
2018-11-11T18:38:10.687Z,305.80
2018-11-11T18:40:40.711Z,286.00
2018-11-11T18:43:10.236Z,299.07
2018-11-11T18:45:40.491Z,276.73
2018-11-11T18:48:10.739Z,259.60
2018-11-11T18:50:41.064Z,274.73
2018-11-11T18:53:10.153Z,255.53
2018-11-11T18:55:39.158Z,246.97
2018-11-11T18:58:08.226Z,245.67
2018-11-11T19:00:37.241Z,267.00
2018-11-11T19:03:06.240Z,283.53
2018-11-11T19:05:35.275Z,316.50
2018-11-11T19:08:04.335Z,285.40
2018-11-11T19:10:33.994Z,299.07
2018-11-11T19:13:05.279Z,286.60
2018-11-11T19:15:34.333Z,285.33
2018-11-11T19:18:11.503Z,263.53
2018-11-11T19:20:47.963Z,298.00
2018-11-11T19:23:27.543Z,304.07
2018-11-11T19:26:04.930Z,302.73
2018-11-11T19:28:48.465Z,318.73
2018-11-11T19:31:32.902Z,351.63
2018-11-11T19:34:13.155Z,370.67
2018-11-11T19:39:45.428Z,405.60
2018-11-11T19:42:29.837Z,478.03
2018-11-11T19:45:16.532Z,506.17
2018-11-11T19:48:13.032Z,561.33
2018-11-11T19:50:57.957Z,603.93
2018-11-11T19:53:35.453Z,595.40
2018-11-11T19:56:20.971Z,624.93
2018-11-11T19:59:09.144Z,642.33
2018-11-11T20:01:57.532Z,648.73
2018-11-11T20:07:33.054Z,670.53
2018-11-11T20:10:20.730Z,671.53
2018-11-11T20:13:11.577Z,689.47
2018-11-11T20:15:49.096Z,697.33
2018-11-11T20:18:28.093Z,698.70
2018-11-11T20:21:13.534Z,704.83
2018-11-11T20:23:56.910Z,722.20
2018-11-11T20:26:47.035Z,717.57
2018-11-11T20:29:23.406Z,716.40
2018-11-11T20:32:05.005Z,720.43
2018-11-11T20:34:50.027Z,732.63
2018-11-11T20:37:29.515Z,741.70
2018-11-11T20:40:20.438Z,727.33
2018-11-11T20:43:04.411Z,749.60
2018-11-11T20:45:46.865Z,746.23
2018-11-11T20:48:30.756Z,734.17
2018-11-11T20:51:10.411Z,768.67
2018-11-11T20:54:01.753Z,771.07
2018-11-11T20:56:54.411Z,785.03
2018-11-11T20:59:45.777Z,801.00
2018-11-11T21:02:31.495Z,705.10
2018-11-11T21:07:52.512Z,677.13
2018-11-11T21:10:37.997Z,706.70
2018-11-11T21:13:07.730Z,700.93
2018-11-11T21:15:38.690Z,676.33
2018-11-11T21:18:07.704Z,666.27
2018-11-11T21:20:36.751Z,698.20
2018-11-11T21:23:06.160Z,673.50
2018-11-11T21:25:35.207Z,660.33
2018-11-11T21:28:04.196Z,656.13
2018-11-11T21:30:33.755Z,688.23
2018-11-11T21:33:02.710Z,704.50
2018-11-11T21:35:31.728Z,726.60
2018-11-11T21:38:00.765Z,697.77
2018-11-11T21:40:29.718Z,707.00
2018-11-11T21:42:58.646Z,677.13
2018-11-11T21:45:28.480Z,677.57
2018-11-11T21:47:57.525Z,690.70
2018-11-11T21:50:27.346Z,710.00
2018-11-11T21:53:06.484Z,684.57
2018-11-11T21:55:35.504Z,710.23
2018-11-11T21:58:04.526Z,712.27
2018-11-11T22:00:33.538Z,694.87
2018-11-11T22:03:02.694Z,728.37
2018-11-11T22:05:31.768Z,715.83
2018-11-11T22:08:00.647Z,722.30
2018-11-11T22:10:29.631Z,725.23
2018-11-11T22:12:58.593Z,699.73
2018-11-11T22:15:27.608Z,745.47
2018-11-11T22:17:56.644Z,726.07
2018-11-11T22:20:30.740Z,716.30
2018-11-11T22:22:59.809Z,682.80
2018-11-11T22:25:28.755Z,683.70
2018-11-11T22:28:02.493Z,692.73
2018-11-11T22:30:35.943Z,715.53
2018-11-11T22:33:06.869Z,701.13
2018-11-11T22:35:35.951Z,746.40
2018-11-11T22:38:05.476Z,763.53
2018-11-11T22:40:34.535Z,765.73
2018-11-11T22:43:03.745Z,761.37
2018-11-11T22:45:32.813Z,794.70
2018-11-11T22:48:01.797Z,779.13
2018-11-11T22:50:30.792Z,810.50
2018-11-11T22:52:59.841Z,806.40
2018-11-11T22:55:29.627Z,753.20
2018-11-11T22:57:58.857Z,772.43
2018-11-11T23:00:29.324Z,790.20
2018-11-11T23:02:58.367Z,776.70
2018-11-11T23:05:27.457Z,804.20
2018-11-11T23:07:58.377Z,780.87
2018-11-11T23:10:28.440Z,777.23
2018-11-11T23:12:57.523Z,772.03
2018-11-11T23:15:26.660Z,791.60
2018-11-11T23:17:56.745Z,777.47
2018-11-11T23:20:25.804Z,784.47
2018-11-11T23:22:55.043Z,786.70
2018-11-11T23:25:24.072Z,801.27
2018-11-11T23:27:55.160Z,804.10
2018-11-11T23:30:24.215Z,771.57
2018-11-11T23:32:53.308Z,789.20
2018-11-11T23:35:23.178Z,769.10
2018-11-11T23:37:52.215Z,765.43
2018-11-11T23:40:21.418Z,766.27
2018-11-11T23:42:51.021Z,750.17
2018-11-11T23:45:20.029Z,748.77
2018-11-11T23:47:49.093Z,759.23
2018-11-11T23:50:19.132Z,784.43
2018-11-11T23:52:48.632Z,764.17
2018-11-11T23:55:18.689Z,774.80
2018-11-11T23:57:48.478Z,801.20
